Time;durP1;ratioP1;P1;durP2;ratioP2;P2;SDS_P1;SDS_P2;PMS_P1;PMS_P2;Temp;Humidity;BMP_temperature;BMP_pressure;BME280_temperature;BME280_humidity;BME280_pressure;Samples;Min_cycle;Max_cycle;Signal;HPM_P1;HPM_P2
2023/06/16 00:02:24;;;;;;;7.03;2.90;;;22.50;62.50;;;;;;6163503;23;20005;-93
2023/06/16 00:04:50;;;;;;;8.60;3.20;;;22.50;62.50;;;;;;6163519;23;20001;-92
2023/06/16 00:07:20;;;;;;;5.38;2.90;;;22.50;62.50;;;;;;6189858;23;20375;-94
2023/06/16 00:09:51;;;;;;;4.80;2.92;;;22.40;62.30;;;;;;6199081;23;20004;-92
2023/06/16 00:12:16;;;;;;;6.80;2.90;;;22.40;62.20;;;;;;6187125;23;19993;-91
2023/06/16 00:14:44;;;;;;;4.88;3.05;;;22.40;62.00;;;;;;6169478;23;20452;-94
2023/06/16 00:17:10;;;;;;;8.27;2.95;;;22.30;61.80;;;;;;6183080;23;20005;-94
2023/06/16 00:19:36;;;;;;;5.20;3.00;;;22.30;62.10;;;;;;6158253;23;20010;-94
2023/06/16 00:22:03;;;;;;;7.35;3.33;;;22.30;62.20;;;;;;6158881;23;20001;-95
2023/06/16 00:24:29;;;;;;;6.57;3.05;;;22.20;62.20;;;;;;6159213;23;20518;-94
2023/06/16 00:26:55;;;;;;;5.43;3.05;;;22.20;62.50;;;;;;6159102;23;19998;-94
2023/06/16 00:29:21;;;;;;;6.45;3.38;;;22.10;62.70;;;;;;6158910;23;20021;-94
2023/06/16 00:31:47;;;;;;;6.32;3.20;;;22.10;62.80;;;;;;6158945;23;20036;-94
2023/06/16 00:34:14;;;;;;;12.70;3.65;;;22.10;62.80;;;;;;6159330;23;20005;-95
2023/06/16 00:36:39;;;;;;;20.23;4.13;;;22.00;62.80;;;;;;6159922;23;20014;-95
2023/06/16 00:39:05;;;;;;;7.57;3.78;;;22.00;62.90;;;;;;6161735;23;20002;-95
2023/06/16 00:41:31;;;;;;;12.75;3.92;;;21.90;63.10;;;;;;6158861;23;20002;-94
2023/06/16 00:43:57;;;;;;;6.10;3.10;;;21.90;63.30;;;;;;6160471;23;20006;-95
2023/06/16 00:46:28;;;;;;;5.60;3.20;;;21.90;63.30;;;;;;6159418;23;20009;-93
2023/06/16 00:48:54;;;;;;;;;;;21.80;62.80;;;;;;6159150;23;20001;-93
2023/06/16 00:51:20;;;;;;;9.20;2.95;;;21.80;62.80;;;;;;6158624;23;19967;-92
2023/06/16 00:53:47;;;;;;;7.03;2.90;;;21.80;62.70;;;;;;6158711;23;20010;-92
2023/06/16 00:56:16;;;;;;;4.47;3.00;;;21.70;62.60;;;;;;6158353;23;20052;-93
2023/06/16 00:58:43;;;;;;;5.07;3.03;;;21.70;62.60;;;;;;6158507;23;20002;-89
2023/06/16 01:01:09;;;;;;;5.50;3.03;;;21.70;62.60;;;;;;6163322;23;20053;-93
2023/06/16 01:03:35;;;;;;;6.80;3.15;;;21.60;62.70;;;;;;6170268;23;20025;-93
2023/06/16 01:06:13;;;;;;;6.45;3.38;;;21.60;62.70;;;;;;6184682;23;20005;-94
2023/06/16 01:08:50;;;;;;;5.32;2.90;;;21.60;62.50;;;;;;6196336;23;20006;-95
2023/06/16 01:11:28;;;;;;;6.55;3.10;;;21.50;62.70;;;;;;6188502;23;20353;-94
2023/06/16 01:13:59;;;;;;;5.13;3.10;;;21.50;62.70;;;;;;6160320;23;20021;-95
2023/06/16 01:16:31;;;;;;;4.70;3.20;;;21.50;62.80;;;;;;6167128;23;20080;-95
2023/06/16 01:19:03;;;;;;;6.07;3.28;;;21.50;62.80;;;;;;6202115;23;19994;-95
2023/06/16 01:21:38;;;;;;;5.90;2.80;;;21.40;63.00;;;;;;6184382;23;20000;-94
2023/06/16 01:24:08;;;;;;;6.03;3.03;;;21.40;63.60;;;;;;6166152;23;20009;-96
2023/06/16 01:26:37;;;;;;;5.20;3.10;;;21.30;63.70;;;;;;6160376;23;20001;-95
2023/06/16 01:29:06;;;;;;;5.10;3.10;;;21.30;63.70;;;;;;6159775;23;20008;-95
2023/06/16 01:31:33;;;;;;;4.80;3.00;;;21.30;64.00;;;;;;6160103;23;20432;-94
2023/06/16 01:34:01;;;;;;;7.55;3.38;;;21.30;64.00;;;;;;6159641;23;20005;-95
2023/06/16 01:36:31;;;;;;;11.10;3.38;;;21.20;64.20;;;;;;6159438;23;20029;-96
2023/06/16 01:39:03;;;;;;;4.22;2.90;;;21.20;64.00;;;;;;6159968;23;20025;-96
2023/06/16 01:41:32;;;;;;;5.15;3.10;;;21.20;64.00;;;;;;6160373;23;20326;-96
2023/06/16 01:44:02;;;;;;;5.28;3.25;;;21.10;64.10;;;;;;6160235;23;20071;-95
2023/06/16 01:46:29;;;;;;;4.53;2.95;;;21.10;64.00;;;;;;6161341;23;20001;-96
2023/06/16 01:48:55;;;;;;;6.22;3.33;;;21.10;64.30;;;;;;6161493;23;20002;-96
2023/06/16 01:51:25;;;;;;;6.55;3.33;;;21.00;64.40;;;;;;6160866;23;20012;-94
2023/06/16 01:53:53;;;;;;;4.97;3.17;;;21.00;64.60;;;;;;6161748;23;20002;-94
2023/06/16 01:56:19;;;;;;;9.20;3.70;;;21.00;65.10;;;;;;6166039;23;20495;-94
2023/06/16 01:58:46;;;;;;;6.95;2.90;;;20.90;65.30;;;;;;6159990;23;20001;-94
2023/06/16 02:01:27;;;;;;;5.15;3.20;;;20.90;65.10;;;;;;6167379;23;20081;-94
2023/06/16 02:04:11;;;;;;;6.50;3.33;;;20.90;65.60;;;;;;6164052;23;20005;-94
2023/06/16 02:06:48;;;;;;;6.53;3.10;;;20.80;65.70;;;;;;6165884;23;20161;-94
2023/06/16 02:09:18;;;;;;;4.63;3.00;;;20.80;65.60;;;;;;6162369;23;20005;-93
2023/06/16 02:11:46;;;;;;;7.13;3.30;;;20.80;65.40;;;;;;6186666;23;20012;-95
2023/06/16 02:14:11;;;;;;;5.38;3.03;;;20.70;65.30;;;;;;6160168;23;20013;-95
2023/06/16 02:16:44;;;;;;;6.88;3.22;;;20.70;65.30;;;;;;6185255;23;20056;-96
2023/06/16 02:19:11;;;;;;;5.13;3.28;;;20.70;65.50;;;;;;6170773;23;20014;-93
2023/06/16 02:21:38;;;;;;;7.22;3.60;;;20.60;65.50;;;;;;6177177;23;19985;-93
2023/06/16 02:24:04;;;;;;;7.53;3.53;;;20.60;65.70;;;;;;6178740;23;20016;-93
2023/06/16 02:26:31;;;;;;;11.80;3.83;;;20.60;65.90;;;;;;6175871;23;20167;-94
2023/06/16 02:29:01;;;;;;;4.70;3.30;;;20.50;66.00;;;;;;6182237;23;20036;-94
2023/06/16 02:31:27;;;;;;;7.47;3.42;;;20.50;66.10;;;;;;6175797;23;20010;-93
2023/06/16 02:33:55;;;;;;;5.25;3.17;;;20.50;66.00;;;;;;6161649;23;20001;-94
2023/06/16 02:36:22;;;;;;;6.57;2.97;;;20.50;66.10;;;;;;6160907;23;20032;-94
2023/06/16 02:38:48;;;;;;;5.32;3.20;;;20.40;66.10;;;;;;6160007;23;20017;-93
2023/06/16 02:41:16;;;;;;;7.40;3.28;;;20.40;66.30;;;;;;6160986;23;20491;-96
2023/06/16 02:43:42;;;;;;;6.85;3.63;;;20.40;66.30;;;;;;6160073;23;20355;-94
2023/06/16 02:46:08;;;;;;;9.35;3.80;;;20.40;66.80;;;;;;6159426;23;20092;-95
2023/06/16 02:48:34;;;;;;;6.88;3.45;;;20.40;66.40;;;;;;6159075;23;20008;-94
2023/06/16 02:51:00;;;;;;;6.28;3.50;;;20.30;66.20;;;;;;6158774;23;20006;-93
2023/06/16 02:53:29;;;;;;;7.30;2.95;;;20.30;66.20;;;;;;6133995;23;20060;-93
2023/06/16 02:55:55;;;;;;;5.72;3.50;;;20.30;66.40;;;;;;6159294;23;20012;-94
2023/06/16 02:58:22;;;;;;;9.13;3.88;;;20.30;66.40;;;;;;6159276;23;19997;-93
2023/06/16 03:00:48;;;;;;;5.13;3.35;;;20.20;66.40;;;;;;6159509;23;20064;-94
2023/06/16 03:03:16;;;;;;;5.10;3.00;;;20.20;66.60;;;;;;6136788;23;20089;-94
2023/06/16 03:05:42;;;;;;;6.03;3.38;;;20.20;66.50;;;;;;6185263;23;20029;-94
2023/06/16 03:08:08;;;;;;;5.75;3.13;;;20.20;66.60;;;;;;6134862;23;20014;-94
2023/06/16 03:10:37;;;;;;;7.03;3.15;;;20.10;66.80;;;;;;6185284;23;20417;-94
2023/06/16 03:13:02;;;;;;;7.20;3.70;;;20.10;66.70;;;;;;6185715;23;20002;-95
2023/06/16 03:15:30;;;;;;;7.05;3.17;;;20.10;66.70;;;;;;6164037;23;20024;-94
2023/06/16 03:17:56;;;;;;;6.82;3.72;;;20.00;66.90;;;;;;6190989;23;20001;-93
2023/06/16 03:20:22;;;;;;;4.45;3.30;;;20.00;67.00;;;;;;6164311;23;19997;-94
2023/06/16 03:22:48;;;;;;;11.38;3.60;;;20.00;67.20;;;;;;6163784;23;20005;-93
2023/06/16 03:25:15;;;;;;;6.38;3.60;;;20.00;67.60;;;;;;6189876;23;20100;-94
2023/06/16 03:27:41;;;;;;;5.75;3.30;;;20.00;68.00;;;;;;6164257;23;20005;-94
2023/06/16 03:30:10;;;;;;;6.38;3.65;;;19.90;68.20;;;;;;6191039;23;20007;-94
2023/06/16 03:32:39;;;;;;;5.78;3.30;;;19.90;68.50;;;;;;6192725;23;20001;-93
2023/06/16 03:35:06;;;;;;;7.03;3.42;;;19.90;68.60;;;;;;6177253;23;20040;-94
2023/06/16 03:37:32;;;;;;;6.15;3.58;;;19.90;69.10;;;;;;6187539;23;20019;-93
2023/06/16 03:40:05;;;;;;;8.80;3.60;;;19.80;69.10;;;;;;6185929;23;20001;-92
2023/06/16 03:42:34;;;;;;;7.25;3.53;;;19.80;68.90;;;;;;6188299;23;19995;-93
2023/06/16 03:45:03;;;;;;;11.73;3.60;;;19.80;68.80;;;;;;6197326;23;20005;-93
2023/06/16 03:47:32;;;;;;;9.30;3.88;;;19.80;68.40;;;;;;6166630;23;20009;-93
2023/06/16 03:49:58;;;;;;;4.85;3.00;;;19.80;68.60;;;;;;6163995;23;20075;-94
2023/06/16 03:52:24;;;;;;;4.90;3.22;;;19.70;68.60;;;;;;6190009;23;19997;-94
2023/06/16 03:54:50;;;;;;;6.28;3.47;;;19.70;68.60;;;;;;6163342;23;20020;-93
2023/06/16 03:57:16;;;;;;;8.43;3.70;;;19.70;68.70;;;;;;6163927;23;20066;-94
2023/06/16 03:59:45;;;;;;;8.35;3.45;;;19.60;68.70;;;;;;6163850;23;20004;-94
2023/06/16 04:02:11;;;;;;;6.55;3.33;;;19.60;68.90;;;;;;6164060;23;20009;-94
2023/06/16 04:04:37;;;;;;;9.75;3.38;;;19.60;69.20;;;;;;6164887;23;20013;-93
2023/06/16 04:07:05;;;;;;;5.97;3.42;;;19.60;69.20;;;;;;6165978;23;20031;-92
2023/06/16 04:09:31;;;;;;;5.95;3.75;;;19.60;69.50;;;;;;6189653;23;20001;-93
2023/06/16 04:11:57;;;;;;;10.52;3.70;;;19.50;69.40;;;;;;6165329;23;20015;-92
2023/06/16 04:14:23;;;;;;;8.13;3.50;;;19.50;69.70;;;;;;6168985;23;20024;-93
2023/06/16 04:16:49;;;;;;;8.45;3.42;;;19.50;69.90;;;;;;6193439;23;20007;-93
2023/06/16 04:19:19;;;;;;;7.97;3.70;;;19.50;70.20;;;;;;6180451;23;19990;-94
2023/06/16 04:21:47;;;;;;;7.95;3.60;;;19.50;70.50;;;;;;6187378;23;20044;-90
2023/06/16 04:24:14;;;;;;;6.40;3.35;;;19.50;70.60;;;;;;6184626;23;20024;-93
2023/06/16 04:26:43;;;;;;;8.55;4.18;;;19.50;71.00;;;;;;6182669;23;20005;-90
2023/06/16 04:29:14;;;;;;;9.88;3.38;;;19.50;71.40;;;;;;6183662;23;20005;-94
2023/06/16 04:31:42;;;;;;;7.97;4.00;;;19.40;71.80;;;;;;6182574;23;19997;-89
2023/06/16 04:34:10;;;;;;;7.93;3.95;;;19.50;72.30;;;;;;6181191;23;20009;-93
2023/06/16 04:36:41;;;;;;;6.68;3.90;;;19.40;72.60;;;;;;6182946;23;20009;-92
2023/06/16 04:39:08;;;;;;;8.07;3.72;;;19.40;72.90;;;;;;6187843;23;20029;-93
2023/06/16 04:41:42;;;;;;;6.50;3.53;;;19.40;72.80;;;;;;6187145;23;19981;-93
2023/06/16 04:44:16;;;;;;;6.35;3.70;;;19.40;72.60;;;;;;6183359;23;20015;-93
2023/06/16 04:46:42;;;;;;;10.73;3.67;;;19.40;72.40;;;;;;6181213;23;19989;-90
2023/06/16 04:49:08;;;;;;;6.53;3.53;;;19.30;72.40;;;;;;6181076;23;20004;-93
2023/06/16 04:51:44;;;;;;;9.93;4.15;;;19.40;72.50;;;;;;6184756;23;20001;-94
2023/06/16 04:54:09;;;;;;;9.05;3.90;;;19.30;72.80;;;;;;6180796;23;20012;-86
2023/06/16 04:56:35;;;;;;;9.25;4.07;;;19.30;73.10;;;;;;6178527;23;20005;-87
2023/06/16 04:59:01;;;;;;;6.18;3.78;;;19.30;73.00;;;;;;6174669;23;20033;-94
2023/06/16 05:01:26;;;;;;;5.82;3.70;;;19.30;73.10;;;;;;6167741;23;20037;-81
2023/06/16 05:03:53;;;;;;;6.32;3.45;;;19.30;73.20;;;;;;6164235;23;20424;-81
2023/06/16 05:06:18;;;;;;;5.38;3.70;;;19.30;73.20;;;;;;6188879;23;20001;-81
2023/06/16 05:08:47;;;;;;;8.98;3.90;;;19.30;73.40;;;;;;6163026;23;20059;-93
2023/06/16 05:11:13;;;;;;;8.38;4.03;;;19.30;73.50;;;;;;6167825;23;20005;-93
2023/06/16 05:13:41;;;;;;;7.30;3.58;;;19.30;73.70;;;;;;6192034;23;20459;-94
2023/06/16 05:16:07;;;;;;;6.47;3.95;;;19.30;74.00;;;;;;6167221;23;20016;-94
2023/06/16 05:18:36;;;;;;;5.57;3.50;;;19.30;74.20;;;;;;6167487;23;20005;-93
2023/06/16 05:21:02;;;;;;;8.77;4.10;;;19.30;74.40;;;;;;6166774;23;20055;-95
2023/06/16 05:23:30;;;;;;;6.47;3.45;;;19.30;74.70;;;;;;6166307;23;20008;-95
2023/06/16 05:25:58;;;;;;;7.30;3.95;;;19.30;75.00;;;;;;6166399;23;20075;-94
2023/06/16 05:28:31;;;;;;;7.47;3.92;;;19.40;75.20;;;;;;6167470;23;20092;-95
2023/06/16 05:30:57;;;;;;;5.90;3.47;;;19.40;75.30;;;;;;6167700;23;20009;-94
2023/06/16 05:33:23;;;;;;;5.32;3.70;;;19.40;75.50;;;;;;6167210;23;20431;-93
2023/06/16 05:35:49;;;;;;;7.32;3.70;;;19.40;75.70;;;;;;6167956;23;20343;-93
2023/06/16 05:38:20;;;;;;;6.13;4.10;;;19.50;75.80;;;;;;6168503;23;19997;-93
2023/06/16 05:40:49;;;;;;;8.38;4.22;;;19.50;75.80;;;;;;6170724;23;20021;-93
2023/06/16 05:43:15;;;;;;;7.03;3.72;;;19.60;76.10;;;;;;6176387;23;20454;-93
2023/06/16 05:45:41;;;;;;;6.53;3.90;;;19.60;76.30;;;;;;6175287;23;20005;-94
2023/06/16 05:48:07;;;;;;;9.20;3.70;;;19.60;76.30;;;;;;6170414;23;20428;-95
2023/06/16 05:50:57;;;;;;;;;;;;;;;;;;;;;
2023/06/16 05:53:24;;;;;;;7.22;3.80;;;19.70;76.40;;;;;;6207394;23;19993;-92
2023/06/16 05:55:55;;;;;;;12.52;4.30;;;19.70;76.50;;;;;;6186417;23;20020;-94
2023/06/16 05:58:37;;;;;;;;;;;;;;;;;;;;;
2023/06/16 06:01:08;;;;;;;5.97;3.95;;;19.80;76.60;;;;;;6191918;23;20060;-95
2023/06/16 06:03:45;;;;;;;7.90;3.80;;;19.80;76.70;;;;;;6166452;23;20000;-95
2023/06/16 06:06:12;;;;;;;7.32;3.80;;;19.80;76.90;;;;;;6163518;23;20013;-95
2023/06/16 06:08:38;;;;;;;6.70;3.40;;;19.90;76.90;;;;;;6163951;23;19993;-95
2023/06/16 06:11:07;;;;;;;6.90;3.88;;;19.90;76.90;;;;;;6164393;23;20450;-94
2023/06/16 06:13:36;;;;;;;7.10;4.47;;;19.90;76.90;;;;;;6164883;23;20022;-96
2023/06/16 06:16:04;;;;;;;6.78;4.32;;;19.90;76.90;;;;;;6175684;23;19986;-93
2023/06/16 06:18:30;;;;;;;5.72;3.58;;;20.00;77.10;;;;;;6181997;23;20041;-95
2023/06/16 06:20:56;;;;;;;6.35;3.58;;;20.00;77.00;;;;;;6165903;23;20005;-94
2023/06/16 06:23:53;;;;;;;8.35;3.35;;;20.00;77.10;;;;;;6187183;23;20029;-94
2023/06/16 06:26:20;;;;;;;9.65;3.70;;;20.10;77.10;;;;;;6156272;23;20036;-94
2023/06/16 06:28:50;;;;;;;4.47;2.90;;;20.10;77.20;;;;;;6161886;23;20084;-94
2023/06/16 06:31:16;;;;;;;5.43;3.35;;;20.10;77.20;;;;;;6160040;23;20015;-94
2023/06/16 06:33:50;;;;;;;10.95;3.47;;;20.10;76.80;;;;;;6162768;23;20021;-93
2023/06/16 06:36:29;;;;;;;6.30;3.30;;;20.20;76.60;;;;;;6185630;23;20028;-94
2023/06/16 06:39:00;;;;;;;6.65;3.75;;;20.20;76.50;;;;;;6159705;23;20002;-93
2023/06/16 06:41:28;;;;;;;8.57;3.72;;;20.20;76.60;;;;;;6160739;23;20009;-93
2023/06/16 06:43:57;;;;;;;4.78;3.05;;;20.30;76.60;;;;;;6184802;23;20009;-93
2023/06/16 06:46:23;;;;;;;14.32;3.92;;;20.30;76.70;;;;;;6160802;23;20002;-93
2023/06/16 06:48:49;;;;;;;43.13;5.22;;;20.30;76.60;;;;;;6159758;23;20084;-92
2023/06/16 06:51:17;;;;;;;7.88;3.60;;;20.30;76.30;;;;;;6156137;23;20321;-92
2023/06/16 06:53:46;;;;;;;8.07;3.90;;;20.40;76.30;;;;;;6156985;23;20096;-93
2023/06/16 06:56:14;;;;;;;7.35;3.53;;;20.40;75.90;;;;;;6159221;23;20005;-93
2023/06/16 06:58:50;;;;;;;8.40;3.20;;;20.40;75.70;;;;;;6186867;23;20085;-94
2023/06/16 07:01:42;;;;;;;6.88;3.67;;;20.50;75.90;;;;;;6168041;23;19998;-92
2023/06/16 07:04:17;;;;;;;8.50;3.78;;;20.50;75.90;;;;;;6180936;23;20012;-93
2023/06/16 07:06:53;;;;;;;;;;;;;;;;;;;;;
2023/06/16 07:09:19;;;;;;;6.40;3.63;;;20.60;76.40;;;;;;6158870;23;20072;-92
2023/06/16 07:11:48;;;;;;;7.57;3.63;;;20.60;76.50;;;;;;6159357;23;20013;-91
2023/06/16 07:14:19;;;;;;;7.75;3.40;;;20.70;76.40;;;;;;6158097;23;20344;-90
2023/06/16 07:16:47;;;;;;;5.32;3.05;;;20.70;76.40;;;;;;6159042;23;20040;-92
2023/06/16 07:19:18;;;;;;;6.45;3.08;;;20.70;76.10;;;;;;6159308;23;20001;-92
2023/06/16 07:21:44;;;;;;;6.00;2.92;;;20.80;76.00;;;;;;6158373;23;20006;-92
2023/06/16 07:24:28;;;;;;;;;;;;;;;;;;;;;
2023/06/16 07:27:17;;;;;;;7.00;2.90;;;20.90;76.20;;;;;;6159757;23;20054;-92
2023/06/16 07:29:43;;;;;;;5.35;2.78;;;21.00;76.40;;;;;;6158668;23;20084;-92
2023/06/16 07:32:18;;;;;;;6.95;2.92;;;21.00;76.30;;;;;;6163362;23;20076;-91
2023/06/16 07:34:52;;;;;;;5.93;2.95;;;21.00;76.40;;;;;;6177635;23;20049;-93
2023/06/16 07:37:41;;;;;;;4.97;3.08;;;21.10;75.50;;;;;;6180366;23;20036;-93
2023/06/16 07:40:18;;;;;;;;;;;;;;;;;;;;;
2023/06/16 07:42:50;;;;;;;6.20;3.17;;;21.20;74.60;;;;;;6160367;23;20389;-93
2023/06/16 07:45:41;;;;;;;6.60;3.00;;;21.30;73.40;;;;;;6134526;23;20092;-93
2023/06/16 07:48:18;;;;;;;6.97;2.80;;;21.40;72.40;;;;;;6156874;23;20025;-92
2023/06/16 07:50:56;;;;;;;4.43;2.80;;;21.40;72.20;;;;;;6134828;23;20009;-91
2023/06/16 07:53:22;;;;;;;4.90;3.03;;;21.50;72.30;;;;;;6154969;23;20017;-82
2023/06/16 07:55:51;;;;;;;5.07;2.90;;;21.60;72.70;;;;;;6179105;23;20408;-80
2023/06/16 07:58:16;;;;;;;5.28;2.90;;;21.60;73.00;;;;;;6157344;23;20078;-96
2023/06/16 08:00:43;;;;;;;4.53;2.65;;;21.70;73.40;;;;;;6162713;23;20001;-93
2023/06/16 08:03:08;;;;;;;3.58;2.70;;;21.80;73.80;;;;;;6159646;23;20070;-93
2023/06/16 08:05:37;;;;;;;6.00;3.25;;;21.80;74.10;;;;;;6164718;23;20002;-94
2023/06/16 08:08:37;;;;;;;;;;;;;;;;;;;;;
2023/06/16 08:11:08;;;;;;;3.95;2.85;;;21.90;74.00;;;;;;6181674;23;20006;-93
2023/06/16 08:13:53;;;;;;;5.47;3.08;;;22.00;73.70;;;;;;6170954;23;20017;-92
2023/06/16 08:16:20;;;;;;;6.82;2.88;;;22.00;73.10;;;;;;6159522;23;20036;-94
2023/06/16 08:18:46;;;;;;;4.82;2.55;;;22.10;73.20;;;;;;6158948;23;20084;-92
2023/06/16 08:21:17;;;;;;;7.63;3.30;;;22.20;73.40;;;;;;6158615;23;20008;-92
2023/06/16 08:23:46;;;;;;;6.60;2.70;;;22.20;73.30;;;;;;6158856;23;20040;-90
2023/06/16 08:26:16;;;;;;;5.20;2.63;;;22.30;72.30;;;;;;6183521;23;20036;-92
2023/06/16 08:28:45;;;;;;;4.88;2.80;;;22.30;72.00;;;;;;6158556;23;19998;-94
2023/06/16 08:31:11;;;;;;;5.18;2.92;;;22.40;72.40;;;;;;6159052;23;20025;-93
2023/06/16 08:33:45;;;;;;;7.55;2.95;;;22.40;72.60;;;;;;6158378;23;20006;-95
2023/06/16 08:36:23;;;;;;;5.72;2.95;;;22.50;72.40;;;;;;6159883;23;20012;-96
2023/06/16 08:38:54;;;;;;;5.88;3.10;;;22.50;71.80;;;;;;6159969;23;20006;-93
2023/06/16 08:41:23;;;;;;;4.53;3.05;;;22.60;71.60;;;;;;6158244;23;20424;-96
2023/06/16 08:43:50;;;;;;;4.68;2.92;;;22.70;71.40;;;;;;6159476;23;20455;-92
2023/06/16 08:46:16;;;;;;;7.55;3.50;;;22.70;70.10;;;;;;6159222;23;20088;-92
2023/06/16 08:48:42;;;;;;;5.68;3.40;;;22.70;67.90;;;;;;6159356;23;20005;-92
2023/06/16 08:51:13;;;;;;;4.45;2.72;;;22.80;67.90;;;;;;6138395;23;20065;-87
2023/06/16 08:53:41;;;;;;;5.22;3.03;;;22.80;68.10;;;;;;6101824;23;20014;-88
2023/06/16 08:56:07;;;;;;;5.70;2.90;;;22.90;68.40;;;;;;6101197;23;20493;-87
2023/06/16 08:58:37;;;;;;;4.75;3.00;;;23.00;68.40;;;;;;6100979;23;20073;-87
2023/06/16 09:01:04;;;;;;;;;;;23.00;68.70;;;;;;6101826;23;20006;-87
2023/06/16 09:03:33;;;;;;;5.85;3.00;;;23.00;68.80;;;;;;6125858;23;19905;-88
2023/06/16 09:06:00;;;;;;;5.25;2.92;;;23.10;69.00;;;;;;6101696;23;20010;-87
2023/06/16 09:08:26;;;;;;;5.57;2.92;;;23.10;68.80;;;;;;6101486;23;20143;-87
2023/06/16 09:10:55;;;;;;;3.55;2.90;;;23.20;68.20;;;;;;6101233;23;20422;-87
2023/06/16 09:13:21;;;;;;;8.88;3.45;;;23.30;67.80;;;;;;6101128;23;20010;-87
2023/06/16 09:15:49;;;;;;;4.90;3.17;;;23.30;67.60;;;;;;6101700;23;20002;-92
2023/06/16 09:18:15;;;;;;;7.53;3.20;;;23.40;67.50;;;;;;6101654;23;20002;-93
2023/06/16 09:20:52;;;;;;;4.20;2.90;;;23.40;67.30;;;;;;6102028;23;20036;-93
2023/06/16 09:23:28;;;;;;;4.80;3.13;;;23.50;67.00;;;;;;6102412;23;20012;-90
2023/06/16 09:25:54;;;;;;;9.52;3.20;;;23.60;67.20;;;;;;6104438;23;20012;-91
2023/06/16 09:28:33;;;;;;;4.78;3.45;;;23.60;66.90;;;;;;6104436;23;20009;-91
2023/06/16 09:31:07;;;;;;;9.90;3.72;;;23.70;66.70;;;;;;6104318;23;20002;-90
2023/06/16 09:33:34;;;;;;;5.45;3.10;;;23.70;66.30;;;;;;6103688;23;20008;-90
2023/06/16 09:36:00;;;;;;;4.65;3.53;;;23.80;65.10;;;;;;6118099;23;20005;-91
2023/06/16 09:38:28;;;;;;;5.55;3.35;;;23.90;64.80;;;;;;6118341;23;20002;-90
2023/06/16 09:41:06;;;;;;;6.70;3.40;;;23.90;63.20;;;;;;6103683;23;19998;-90
2023/06/16 09:43:32;;;;;;;5.05;3.35;;;24.00;63.50;;;;;;6103782;23;20006;-91
2023/06/16 09:45:57;;;;;;;4.45;3.17;;;24.10;63.50;;;;;;6103995;23;20010;-90
2023/06/16 09:48:26;;;;;;;6.15;3.80;;;24.10;63.20;;;;;;6104071;23;20016;-91
2023/06/16 09:50:55;;;;;;;5.20;3.58;;;24.20;63.70;;;;;;6105513;23;20014;-90
2023/06/16 09:53:22;;;;;;;4.03;3.17;;;24.20;64.10;;;;;;6106566;23;20010;-90
2023/06/16 09:55:50;;;;;;;6.43;3.00;;;24.30;63.90;;;;;;6108179;23;20006;-90
2023/06/16 09:58:16;;;;;;;6.68;3.47;;;24.40;63.20;;;;;;6107725;23;20010;-90
2023/06/16 10:00:42;;;;;;;6.00;3.00;;;24.40;62.60;;;;;;6104266;23;20016;-90
2023/06/16 10:03:09;;;;;;;9.25;3.35;;;24.50;62.20;;;;;;6103897;23;20030;-91
2023/06/16 10:05:37;;;;;;;4.72;3.03;;;24.60;62.20;;;;;;6103438;23;20140;-88
2023/06/16 10:08:07;;;;;;;5.38;3.50;;;24.60;62.00;;;;;;6103593;23;20008;-86
2023/06/16 10:10:35;;;;;;;4.43;3.05;;;24.70;61.50;;;;;;6106857;23;20013;-88
2023/06/16 10:13:06;;;;;;;3.88;2.90;;;24.70;61.10;;;;;;6128941;23;20021;-89
2023/06/16 10:15:37;;;;;;;7.07;3.20;;;24.80;60.60;;;;;;6105800;23;20052;-88
2023/06/16 10:18:04;;;;;;;6.38;3.17;;;24.80;60.00;;;;;;6107605;23;20418;-89
2023/06/16 10:20:32;;;;;;;5.97;2.90;;;24.90;59.50;;;;;;6107386;23;20002;-89
2023/06/16 10:23:02;;;;;;;4.88;3.45;;;24.90;59.40;;;;;;6103987;23;20448;-90
2023/06/16 10:25:32;;;;;;;5.72;3.28;;;25.00;59.90;;;;;;6103829;23;20329;-91
2023/06/16 10:28:00;;;;;;;7.10;3.40;;;25.00;59.90;;;;;;6102541;23;20010;-91
2023/06/16 10:30:28;;;;;;;9.98;3.72;;;25.10;59.90;;;;;;6103992;23;20018;-91
2023/06/16 10:32:58;;;;;;;5.97;3.03;;;25.20;59.50;;;;;;6103908;23;20382;-90
2023/06/16 10:35:23;;;;;;;5.00;3.10;;;25.30;59.40;;;;;;6129690;23;20002;-90
2023/06/16 10:37:53;;;;;;;4.95;3.05;;;25.30;59.10;;;;;;6104576;23;20021;-88
2023/06/16 10:40:23;;;;;;;4.93;3.00;;;25.40;58.80;;;;;;6102709;23;20013;-88
2023/06/16 10:42:55;;;;;;;4.93;3.22;;;25.40;57.20;;;;;;6102407;23;20426;-89
2023/06/16 10:45:39;;;;;;;4.40;2.97;;;25.50;57.10;;;;;;6103251;23;20017;-89
2023/06/16 10:48:11;;;;;;;6.05;3.60;;;25.60;56.90;;;;;;6103696;23;20342;-89
2023/06/16 10:50:39;;;;;;;5.68;3.35;;;25.60;56.70;;;;;;6102762;23;20485;-91
2023/06/16 10:53:10;;;;;;;4.78;3.45;;;25.70;56.80;;;;;;6129975;23;20410;-92
2023/06/16 10:55:39;;;;;;;7.55;3.17;;;25.70;56.90;;;;;;6103273;23;20049;-91
2023/06/16 10:58:26;;;;;;;5.10;3.33;;;25.80;55.60;;;;;;6103072;23;20298;-90
2023/06/16 11:01:01;;;;;;;6.63;3.17;;;25.80;54.60;;;;;;6103854;23;20329;-91
2023/06/16 11:03:38;;;;;;;6.40;3.65;;;25.90;55.20;;;;;;6103737;23;20338;-89
2023/06/16 11:06:05;;;;;;;5.18;3.47;;;25.90;54.90;;;;;;6103495;23;20056;-92
2023/06/16 11:08:47;;;;;;;6.82;3.40;;;26.00;54.70;;;;;;6104844;23;20006;-92
2023/06/16 11:11:13;;;;;;;8.77;3.60;;;26.00;54.50;;;;;;6105143;23;20014;-92
2023/06/16 11:13:39;;;;;;;4.90;3.00;;;26.10;54.90;;;;;;6103163;23;20006;-92
2023/06/16 11:16:06;;;;;;;4.40;3.25;;;26.20;55.20;;;;;;6103675;23;20006;-92
2023/06/16 11:18:35;;;;;;;6.22;3.40;;;26.30;55.20;;;;;;6103811;23;20005;-92
2023/06/16 11:21:08;;;;;;;3.72;3.05;;;26.30;55.20;;;;;;6102981;23;20051;-92
2023/06/16 11:23:34;;;;;;;5.57;3.47;;;26.30;54.90;;;;;;6103413;23;20030;-93
2023/06/16 11:26:11;;;;;;;6.65;3.45;;;26.40;55.20;;;;;;6104143;23;20014;-91
2023/06/16 11:28:40;;;;;;;6.03;3.67;;;26.50;55.20;;;;;;6103438;23;20006;-91
2023/06/16 11:31:10;;;;;;;4.85;3.40;;;26.60;54.70;;;;;;6103044;23;19998;-93
2023/06/16 11:33:36;;;;;;;6.97;3.85;;;26.60;54.80;;;;;;6102966;23;20009;-92
2023/06/16 11:42:36;;;;;;;5.82;3.72;;;26.80;54.80;;;;;;6116494;23;20021;-89
2023/06/16 11:45:06;;;;;;;6.50;3.45;;;26.90;54.90;;;;;;6103105;23;20006;-89
2023/06/16 11:47:34;;;;;;;4.68;3.40;;;26.90;54.60;;;;;;6101863;23;20333;-88
2023/06/16 11:50:00;;;;;;;6.10;3.28;;;27.00;54.30;;;;;;6102780;23;20002;-89
2023/06/16 11:52:27;;;;;;;5.78;3.45;;;27.00;53.90;;;;;;6080411;23;21146;-88
2023/06/16 11:54:57;;;;;;;6.75;3.60;;;27.10;52.50;;;;;;6126839;23;20042;-90
2023/06/16 11:57:25;;;;;;;4.03;3.20;;;27.10;52.30;;;;;;6128271;23;20065;-88
2023/06/16 12:00:27;;;;;;;4.68;3.22;;;27.20;53.10;;;;;;6102778;23;20002;-91
2023/06/16 12:02:53;;;;;;;5.93;3.47;;;27.20;54.20;;;;;;6113331;23;20137;-91
2023/06/16 12:05:27;;;;;;;5.68;3.88;;;27.30;54.80;;;;;;6105759;23;20009;-92
2023/06/16 12:08:03;;;;;;;6.72;3.60;;;27.30;55.00;;;;;;6104711;23;20006;-92
2023/06/16 12:13:56;;;;;;;5.85;3.40;;;27.40;55.40;;;;;;6132202;23;20041;-92
2023/06/16 12:16:44;;;;;;;5.10;2.92;;;27.40;55.80;;;;;;6108855;23;20012;-93
2023/06/16 12:19:33;;;;;;;6.20;3.70;;;27.40;56.10;;;;;;6120446;23;20033;-93
2023/06/16 12:22:16;;;;;;;5.72;3.20;;;27.40;56.40;;;;;;6124050;23;20009;-93
2023/06/16 12:24:51;;;;;;;5.10;3.45;;;27.40;56.60;;;;;;6125402;23;20006;-92
2023/06/16 12:27:56;;;;;;;6.22;3.33;;;27.40;56.90;;;;;;6150046;23;20001;-93
2023/06/16 12:30:41;;;;;;;4.53;2.92;;;27.50;56.50;;;;;;6123808;23;20010;-91
2023/06/16 12:33:17;;;;;;;9.55;4.05;;;27.50;56.80;;;;;;6124502;23;20017;-92
2023/06/16 12:35:47;;;;;;;5.75;3.50;;;27.60;56.70;;;;;;6112427;23;20506;-93
2023/06/16 12:38:13;;;;;;;7.03;3.45;;;27.60;56.30;;;;;;6102992;23;20414;-93
2023/06/16 12:40:46;;;;;;;7.15;3.80;;;27.60;56.30;;;;;;6103283;23;20002;-92
2023/06/16 12:43:45;;;;;;;5.43;3.30;;;27.70;56.60;;;;;;6103099;23;20010;-92
2023/06/16 12:46:11;;;;;;;5.20;3.22;;;27.60;56.20;;;;;;6102216;23;20002;-93
2023/06/16 12:48:36;;;;;;;7.40;3.20;;;27.70;56.50;;;;;;6102419;23;20065;-93
2023/06/16 12:51:02;;;;;;;6.00;3.45;;;27.70;56.60;;;;;;6102833;23;20009;-90
2023/06/16 13:04:19;;;;;;;7.10;3.20;;;27.70;56.70;;;;;;6134802;23;20025;-90
2023/06/16 13:06:45;;;;;;;5.30;3.50;;;27.70;56.90;;;;;;6109788;23;20087;-91
2023/06/16 13:09:10;;;;;;;5.65;3.33;;;27.70;57.00;;;;;;6107306;23;20006;-90
2023/06/16 13:11:36;;;;;;;8.00;3.30;;;27.70;56.90;;;;;;6104142;23;20010;-90
2023/06/16 13:14:05;;;;;;;4.95;3.20;;;27.70;56.80;;;;;;6104821;23;20002;-90
2023/06/16 13:16:32;;;;;;;3.97;2.85;;;27.80;56.80;;;;;;6104469;23;19998;-91
2023/06/16 13:18:58;;;;;;;5.07;3.10;;;27.90;56.80;;;;;;6104480;23;20013;-90
2023/06/16 13:21:30;;;;;;;4.85;3.15;;;27.90;56.60;;;;;;6104656;23;20002;-91
2023/06/16 13:23:56;;;;;;;5.80;3.22;;;27.90;56.50;;;;;;6105477;23;20069;-91
2023/06/16 13:26:25;;;;;;;6.55;3.35;;;28.00;56.60;;;;;;6105970;23;20013;-93
2023/06/16 13:28:51;;;;;;;5.75;3.35;;;28.10;56.90;;;;;;6105078;23;20068;-92